createdAt,value
2022-08-14T00:04:35.386Z,20.00
2022-08-14T00:10:49.977Z,20.00
2022-08-14T00:16:50.810Z,19.80
2022-08-14T00:23:12.218Z,19.70
2022-08-14T00:29:18.606Z,19.70
2022-08-14T00:35:20.619Z,19.60
2022-08-14T00:41:43.251Z,19.40
2022-08-14T00:47:48.740Z,19.30
2022-08-14T00:53:51.003Z,19.20
2022-08-14T00:59:56.359Z,19.20
2022-08-14T01:06:00.567Z,19.20
2022-08-14T01:12:05.368Z,19.10
2022-08-14T01:18:26.073Z,19.00
2022-08-14T01:24:30.973Z,18.90
2022-08-14T01:30:40.026Z,18.70
2022-08-14T01:36:42.082Z,18.60
2022-08-14T01:42:45.270Z,18.50
2022-08-14T01:48:49.239Z,18.30
2022-08-14T01:54:58.474Z,18.30
2022-08-14T02:01:00.873Z,18.30
2022-08-14T02:07:05.578Z,18.20
2022-08-14T02:13:08.447Z,18.10
2022-08-14T02:19:15.026Z,18.10
2022-08-14T02:25:17.000Z,18.10
2022-08-14T02:31:19.916Z,18.10
2022-08-14T02:37:47.627Z,18.20
2022-08-14T02:43:50.967Z,18.20
2022-08-14T02:49:56.775Z,18.20
2022-08-14T02:56:02.941Z,18.10
2022-08-14T03:02:33.410Z,18.00
2022-08-14T03:08:46.160Z,17.90
2022-08-14T03:14:52.515Z,17.90
2022-08-14T03:20:54.992Z,17.90
2022-08-14T03:26:58.513Z,17.70
2022-08-14T03:33:00.669Z,17.70
2022-08-14T03:39:15.881Z,17.70
2022-08-14T03:45:34.158Z,17.70
2022-08-14T03:51:37.905Z,17.60
2022-08-14T03:57:41.291Z,17.50
2022-08-14T04:03:45.237Z,17.50
2022-08-14T04:09:50.106Z,17.50
2022-08-14T04:16:01.845Z,17.60
2022-08-14T04:22:06.286Z,17.50
2022-08-14T04:28:11.470Z,17.60
2022-08-14T04:34:33.852Z,17.60
2022-08-14T04:40:55.497Z,17.50
2022-08-14T04:47:16.769Z,17.50
2022-08-14T04:53:23.170Z,17.60
2022-08-14T04:59:28.401Z,17.70
2022-08-14T05:05:32.996Z,17.80
2022-08-14T05:11:36.789Z,17.80
2022-08-14T05:17:53.958Z,17.90
2022-08-14T05:24:06.210Z,17.90
2022-08-14T05:30:20.129Z,18.10
2022-08-14T05:36:23.977Z,18.40
2022-08-14T05:42:31.733Z,18.70
2022-08-14T05:48:42.981Z,18.90
2022-08-14T05:54:45.634Z,19.10
2022-08-14T06:00:49.778Z,19.30
2022-08-14T06:06:51.918Z,19.50
2022-08-14T06:12:57.267Z,19.90
2022-08-14T06:19:00.213Z,20.20
2022-08-14T06:25:03.856Z,20.50
2022-08-14T06:31:07.722Z,20.80
2022-08-14T06:37:09.743Z,21.10
2022-08-14T06:43:15.376Z,21.50
2022-08-14T06:49:17.637Z,21.90
2022-08-14T06:55:24.024Z,22.20
2022-08-14T07:01:47.310Z,22.60
2022-08-14T07:07:52.151Z,23.00
2022-08-14T07:13:54.147Z,23.40
2022-08-14T07:19:57.222Z,23.40
2022-08-14T07:26:02.114Z,23.30
2022-08-14T07:32:04.991Z,23.70
2022-08-14T07:38:08.263Z,24.30
2022-08-14T07:44:33.066Z,24.40
2022-08-14T07:50:37.292Z,24.70
2022-08-14T07:56:47.402Z,25.40
2022-08-14T08:02:57.090Z,26.20
2022-08-14T08:09:03.597Z,26.70
2022-08-14T08:15:07.788Z,27.10
2022-08-14T08:21:11.207Z,27.60
2022-08-14T08:27:17.396Z,27.60
2022-08-14T08:33:21.497Z,27.90
2022-08-14T08:39:24.803Z,28.40
2022-08-14T08:45:35.787Z,28.50
2022-08-14T08:51:42.819Z,28.50
2022-08-14T08:57:46.427Z,28.90
2022-08-14T09:03:48.537Z,29.10
2022-08-14T09:09:59.040Z,29.20
2022-08-14T09:16:18.684Z,29.60
2022-08-14T09:22:33.347Z,29.40
2022-08-14T09:28:38.666Z,29.70
2022-08-14T09:34:58.941Z,29.60
2022-08-14T09:42:20.187Z,29.70
2022-08-14T09:48:19.789Z,29.70
2022-08-14T09:54:23.058Z,30.40
2022-08-14T10:00:44.778Z,31.10
2022-08-14T10:06:47.408Z,31.30
2022-08-14T10:12:50.180Z,31.60
2022-08-14T10:19:12.845Z,32.40
2022-08-14T10:25:19.809Z,32.90
2022-08-14T10:31:40.070Z,33.10
2022-08-14T10:37:49.527Z,33.00
2022-08-14T10:44:09.116Z,33.60
2022-08-14T10:50:36.049Z,34.20
2022-08-14T10:56:38.132Z,34.90
2022-08-14T11:02:54.679Z,34.60
2022-08-14T11:08:57.754Z,34.20
2022-08-14T11:15:02.091Z,34.70
2022-08-14T11:21:09.642Z,34.80
2022-08-14T11:27:16.475Z,35.40
2022-08-14T11:33:29.241Z,35.20
2022-08-14T11:39:34.762Z,35.30
2022-08-14T11:45:40.779Z,36.40
2022-08-14T11:51:54.714Z,36.50
2022-08-14T11:58:07.880Z,37.00
2022-08-14T12:04:21.811Z,37.40
2022-08-14T12:10:41.153Z,37.20
2022-08-14T12:16:45.544Z,36.80
2022-08-14T12:22:52.647Z,37.30
2022-08-14T12:29:14.455Z,37.50
2022-08-14T12:35:17.986Z,38.00
2022-08-14T12:41:27.821Z,38.50
2022-08-14T12:47:31.368Z,40.00
2022-08-14T12:53:39.873Z,39.30
2022-08-14T12:59:43.410Z,38.90
2022-08-14T13:05:48.762Z,40.10
2022-08-14T13:11:58.985Z,40.10
2022-08-14T13:18:17.099Z,41.20
2022-08-14T13:24:21.052Z,41.40
2022-08-14T13:30:25.119Z,41.90
2022-08-14T13:36:54.520Z,42.70
2022-08-14T13:42:53.751Z,42.50
2022-08-14T13:48:56.378Z,40.90
2022-08-14T13:55:05.098Z,41.30
2022-08-14T14:01:07.509Z,41.70
2022-08-14T14:07:14.165Z,41.50
2022-08-14T14:13:18.460Z,41.80
2022-08-14T14:19:20.946Z,42.20
2022-08-14T14:25:26.041Z,41.00
2022-08-14T14:31:51.378Z,39.20
2022-08-14T14:37:55.036Z,39.10
2022-08-14T14:44:00.898Z,37.90
2022-08-14T14:50:04.316Z,39.60
2022-08-14T14:56:47.688Z,40.80
2022-08-14T15:02:40.765Z,42.20
2022-08-14T15:08:56.767Z,42.50
2022-08-14T15:15:08.971Z,42.90
2022-08-14T15:21:12.533Z,43.00
2022-08-14T15:27:16.338Z,42.90
2022-08-14T15:34:00.897Z,41.40
2022-08-14T15:40:16.479Z,40.10
2022-08-14T15:46:43.129Z,37.90
2022-08-14T15:52:47.954Z,36.50
2022-08-14T15:58:50.655Z,38.40
2022-08-14T16:04:53.003Z,39.60
2022-08-14T16:10:56.438Z,39.30
2022-08-14T16:17:00.156Z,38.90
2022-08-14T16:23:11.517Z,39.40
2022-08-14T16:29:15.562Z,38.90
2022-08-14T16:35:18.153Z,39.70
2022-08-14T16:41:26.259Z,38.40
2022-08-14T16:47:32.066Z,36.20
2022-08-14T16:53:38.705Z,34.90
2022-08-14T16:59:52.789Z,32.90
2022-08-14T17:06:00.658Z,32.20
2022-08-14T17:12:08.378Z,31.30
2022-08-14T17:18:14.867Z,30.70
2022-08-14T17:24:56.401Z,30.10
2022-08-14T17:31:02.528Z,29.40
2022-08-14T17:37:04.879Z,28.90
2022-08-14T17:43:07.167Z,28.60
2022-08-14T17:49:24.324Z,28.20
2022-08-14T17:56:01.755Z,28.00
2022-08-14T18:01:50.950Z,27.50
2022-08-14T18:08:31.463Z,27.10
2022-08-14T18:14:20.712Z,26.90
2022-08-14T18:21:39.879Z,26.80
2022-08-14T18:27:22.846Z,26.40
2022-08-14T18:33:26.074Z,26.10
2022-08-14T18:40:01.186Z,26.00
2022-08-14T18:46:01.729Z,25.80
2022-08-14T18:52:18.710Z,25.70
2022-08-14T18:58:31.345Z,25.60
2022-08-14T19:04:38.048Z,25.50
2022-08-14T19:10:48.693Z,25.40
2022-08-14T19:16:53.716Z,25.30
2022-08-14T19:22:57.348Z,25.40
2022-08-14T19:28:59.891Z,25.60
2022-08-14T19:35:02.394Z,25.90
2022-08-14T19:41:21.077Z,26.10
2022-08-14T19:47:41.193Z,26.20
2022-08-14T19:54:13.517Z,26.20
2022-08-14T20:00:28.728Z,26.00
2022-08-14T20:06:43.268Z,25.90
2022-08-14T20:13:05.634Z,25.80
2022-08-14T20:19:28.750Z,25.80
2022-08-14T20:25:37.519Z,25.90
2022-08-14T20:31:47.966Z,25.90
2022-08-14T20:38:32.530Z,25.80
2022-08-14T20:45:03.270Z,25.90
2022-08-14T20:51:36.660Z,25.90
2022-08-14T20:57:43.631Z,26.00
2022-08-14T21:03:57.008Z,26.00
2022-08-14T21:10:34.167Z,26.00
2022-08-14T21:16:57.957Z,25.90
2022-08-14T21:23:01.156Z,25.80
2022-08-14T21:29:03.839Z,25.60
2022-08-14T21:35:13.528Z,25.50
2022-08-14T21:41:41.684Z,25.30
2022-08-14T21:47:46.015Z,25.30
2022-08-14T21:53:58.728Z,25.30
2022-08-14T22:00:31.563Z,25.30
2022-08-14T22:06:39.366Z,25.20
2022-08-14T22:12:57.818Z,25.10
2022-08-14T22:19:04.591Z,25.00
2022-08-14T22:25:17.362Z,24.90
2022-08-14T22:31:22.190Z,24.80
2022-08-14T22:37:25.230Z,24.80
2022-08-14T22:43:27.609Z,24.80
2022-08-14T22:50:30.864Z,24.80
2022-08-14T22:55:56.607Z,24.80
2022-08-14T23:02:14.697Z,24.70
2022-08-14T23:08:57.651Z,24.70
2022-08-14T23:14:39.854Z,24.80
2022-08-14T23:20:44.305Z,24.80
2022-08-14T23:26:53.608Z,24.60
2022-08-14T23:32:56.091Z,24.60
2022-08-14T23:39:02.038Z,24.50
2022-08-14T23:45:12.683Z,24.30
2022-08-14T23:51:17.840Z,24.20
2022-08-14T23:57:22.046Z,24.10
